createdAt,value
2019-02-20T00:02:24.532Z,49.12
2019-02-20T00:04:50.515Z,49.04
2019-02-20T00:07:16.481Z,49.14
2019-02-20T00:09:42.460Z,49.14
2019-02-20T00:12:08.449Z,49.19
2019-02-20T00:14:34.452Z,49.26
2019-02-20T00:17:00.452Z,49.12
2019-02-20T00:19:26.449Z,49.30
2019-02-20T00:21:52.495Z,49.34
2019-02-20T00:24:18.493Z,49.47
2019-02-20T00:26:44.539Z,49.44
2019-02-20T00:29:10.523Z,49.24
2019-02-20T00:31:36.637Z,49.45
2019-02-20T00:34:02.753Z,49.46
2019-02-20T00:36:28.885Z,49.40
2019-02-20T00:38:54.869Z,49.14
2019-02-20T00:41:20.878Z,49.24
2019-02-20T00:43:46.895Z,49.15
2019-02-20T00:46:12.872Z,49.19
2019-02-20T00:48:38.852Z,49.05
2019-02-20T00:51:04.847Z,49.07
2019-02-20T00:53:30.833Z,48.80
2019-02-20T00:55:56.860Z,49.08
2019-02-20T00:58:22.834Z,48.94
2019-02-20T01:00:48.810Z,49.08
2019-02-20T01:03:14.907Z,49.02
2019-02-20T01:05:40.924Z,48.98
2019-02-20T01:08:06.930Z,48.86
2019-02-20T01:10:32.903Z,48.96
2019-02-20T01:12:58.980Z,49.02
2019-02-20T01:15:24.971Z,48.84
2019-02-20T01:17:50.961Z,48.95
2019-02-20T01:20:16.991Z,49.03
2019-02-20T01:22:43.019Z,48.95
2019-02-20T01:25:09.003Z,48.97
2019-02-20T01:27:34.991Z,49.05
2019-02-20T01:30:00.992Z,48.88
2019-02-20T01:32:26.971Z,49.03
2019-02-20T01:34:52.944Z,48.97
2019-02-20T01:37:19.003Z,48.99
2019-02-20T01:39:44.992Z,48.90
2019-02-20T01:42:10.971Z,48.87
2019-02-20T01:44:36.946Z,48.72
2019-02-20T01:47:02.937Z,48.63
2019-02-20T01:49:28.916Z,48.89
2019-02-20T01:51:54.973Z,48.87
2019-02-20T01:54:20.968Z,48.93
2019-02-20T01:56:46.936Z,48.94
2019-02-20T01:59:12.945Z,48.88
2019-02-20T02:01:38.966Z,48.86
2019-02-20T02:04:05.028Z,48.97
2019-02-20T02:06:31.012Z,48.87
2019-02-20T02:08:57.004Z,48.92
2019-02-20T02:11:22.983Z,48.84
2019-02-20T02:13:48.960Z,48.89
2019-02-20T02:16:14.976Z,48.91
2019-02-20T02:18:40.954Z,48.92
2019-02-20T02:21:06.964Z,49.03
2019-02-20T02:23:32.954Z,48.85
2019-02-20T02:25:58.959Z,48.45
2019-02-20T02:28:24.954Z,48.70
2019-02-20T02:30:50.970Z,48.96
2019-02-20T02:33:16.950Z,48.96
2019-02-20T02:35:42.949Z,48.97
2019-02-20T02:38:09.012Z,48.99
2019-02-20T02:40:35.001Z,49.03
2019-02-20T02:43:01.055Z,49.02
2019-02-20T02:45:27.093Z,49.03
2019-02-20T02:47:53.105Z,49.04
2019-02-20T02:50:19.171Z,49.07
2019-02-20T02:52:45.168Z,49.08
2019-02-20T02:55:11.191Z,49.01
2019-02-20T02:57:37.192Z,49.02
2019-02-20T03:00:03.251Z,49.05
2019-02-20T03:02:29.232Z,49.05
2019-02-20T03:04:55.300Z,49.05
2019-02-20T03:07:21.304Z,49.08
2019-02-20T03:09:47.368Z,49.12
2019-02-20T03:12:13.386Z,49.12
2019-02-20T03:14:39.376Z,49.11
2019-02-20T03:17:05.364Z,49.13
2019-02-20T03:19:31.490Z,49.16
2019-02-20T03:21:57.463Z,49.20
2019-02-20T03:24:23.568Z,49.23
2019-02-20T03:26:49.565Z,49.26
2019-02-20T03:29:15.569Z,49.27
2019-02-20T03:31:41.550Z,49.31
2019-02-20T03:34:08.998Z,49.33
2019-02-20T03:36:35.240Z,49.34
2019-02-20T03:39:01.243Z,49.36
2019-02-20T03:41:27.249Z,49.35
2019-02-20T03:43:53.226Z,49.37
2019-02-20T03:46:19.208Z,49.39
2019-02-20T03:48:45.188Z,49.39
2019-02-20T03:51:11.183Z,49.40
2019-02-20T03:53:37.218Z,49.45
2019-02-20T03:56:03.217Z,49.42
2019-02-20T03:58:29.296Z,49.47
2019-02-20T04:00:55.299Z,49.47
2019-02-20T04:03:21.293Z,49.45
2019-02-20T04:05:47.281Z,49.44
2019-02-20T04:08:13.319Z,49.45
2019-02-20T04:10:39.297Z,49.47
2019-02-20T04:13:05.379Z,49.45
2019-02-20T04:15:31.428Z,49.45
2019-02-20T04:17:57.402Z,49.46
2019-02-20T04:20:23.417Z,49.46
2019-02-20T04:22:49.382Z,49.50
2019-02-20T04:25:15.382Z,49.48
2019-02-20T04:27:41.357Z,49.46
2019-02-20T04:30:07.366Z,49.50
2019-02-20T04:32:33.378Z,49.45
2019-02-20T04:34:59.352Z,49.44
2019-02-20T04:37:25.397Z,49.51
2019-02-20T04:39:51.364Z,49.54
2019-02-20T04:42:17.416Z,49.52
2019-02-20T04:44:43.398Z,49.49
2019-02-20T04:47:09.369Z,49.51
2019-02-20T04:49:35.360Z,49.51
2019-02-20T04:52:01.352Z,49.51
2019-02-20T04:54:27.401Z,49.52
2019-02-20T04:56:53.402Z,49.49
2019-02-20T04:59:19.384Z,49.50
2019-02-20T05:01:45.396Z,49.52
2019-02-20T05:04:11.398Z,49.49
2019-02-20T05:06:37.446Z,49.49
2019-02-20T05:09:03.464Z,49.49
2019-02-20T05:11:29.444Z,49.48
2019-02-20T05:13:55.446Z,49.50
2019-02-20T05:16:21.525Z,49.50
2019-02-20T05:18:47.576Z,49.48
2019-02-20T05:21:13.579Z,49.46
2019-02-20T05:23:39.549Z,49.47
2019-02-20T05:26:05.555Z,49.48
2019-02-20T05:28:31.543Z,49.48
2019-02-20T05:30:57.515Z,49.54
2019-02-20T05:33:23.504Z,49.50
2019-02-20T05:35:49.487Z,49.52
2019-02-20T05:38:15.544Z,49.50
2019-02-20T05:40:41.632Z,49.51
2019-02-20T05:43:07.705Z,49.49
2019-02-20T05:45:36.025Z,49.48
2019-02-20T05:48:01.999Z,49.46
2019-02-20T05:50:27.970Z,49.47
2019-02-20T05:52:53.980Z,49.47
2019-02-20T05:55:20.235Z,49.48
2019-02-20T05:57:46.305Z,49.47
2019-02-20T06:00:12.489Z,49.42
2019-02-20T06:02:38.484Z,49.36
2019-02-20T06:05:04.450Z,49.37
2019-02-20T06:07:30.458Z,49.39
2019-02-20T06:09:56.441Z,49.43
2019-02-20T06:12:22.494Z,49.46
2019-02-20T06:14:48.512Z,49.48
2019-02-20T06:17:14.512Z,49.46
2019-02-20T06:19:41.000Z,49.48
2019-02-20T06:22:07.175Z,49.53
2019-02-20T06:24:33.177Z,49.56
2019-02-20T06:26:59.239Z,49.55
2019-02-20T06:29:25.218Z,49.54
2019-02-20T06:31:51.212Z,49.50
2019-02-20T06:34:17.215Z,49.50
2019-02-20T06:36:43.255Z,49.51
2019-02-20T06:39:09.235Z,49.51
2019-02-20T06:41:38.945Z,49.48
2019-02-20T06:44:02.936Z,49.50
2019-02-20T06:46:28.941Z,49.50
2019-02-20T06:48:54.994Z,49.48
2019-02-20T06:51:20.972Z,49.51
2019-02-20T06:53:46.951Z,49.46
2019-02-20T06:56:12.937Z,49.45
2019-02-20T07:00:17.091Z,49.54
2019-02-20T07:12:25.359Z,49.50
2019-02-20T07:14:54.011Z,49.44
2019-02-20T07:20:08.018Z,49.44
2019-02-20T07:55:40.039Z,49.51
2019-02-20T07:58:06.063Z,49.33
2019-02-20T08:00:32.078Z,49.38
2019-02-20T08:02:58.082Z,49.27
2019-02-20T08:05:24.163Z,49.27
2019-02-20T08:07:50.137Z,49.21
2019-02-20T08:10:16.127Z,49.15
2019-02-20T08:12:42.249Z,49.12
2019-02-20T08:15:08.258Z,49.48
2019-02-20T08:17:34.348Z,49.38
2019-02-20T08:20:00.420Z,49.28
2019-02-20T08:22:26.473Z,49.26
2019-02-20T08:24:52.592Z,49.21
2019-02-20T08:27:18.599Z,49.22
2019-02-20T08:29:45.051Z,49.11
2019-02-20T08:32:11.075Z,49.16
2019-02-20T08:34:37.162Z,49.14
2019-02-20T08:37:03.174Z,49.13
2019-02-20T08:39:29.172Z,50.60
2019-02-20T08:41:55.296Z,49.56
2019-02-20T08:44:21.292Z,49.38
2019-02-20T08:46:47.302Z,49.24
2019-02-20T08:49:13.287Z,49.11
2019-02-20T08:51:39.311Z,49.07
2019-02-20T08:54:05.324Z,48.97
2019-02-20T08:56:31.684Z,48.88
2019-02-20T08:58:57.736Z,49.37
2019-02-20T09:01:23.712Z,49.16
2019-02-20T09:03:49.700Z,49.07
2019-02-20T09:06:15.724Z,49.00
2019-02-20T09:08:41.775Z,48.93
2019-02-20T09:11:07.802Z,48.86
2019-02-20T09:13:33.791Z,48.83
2019-02-20T09:15:59.806Z,48.74
2019-02-20T09:18:25.788Z,48.73
2019-02-20T09:20:51.844Z,48.72
2019-02-20T09:23:17.822Z,48.63
2019-02-20T09:25:43.902Z,48.72
2019-02-20T09:28:09.908Z,48.68
2019-02-20T09:30:35.891Z,48.91
2019-02-20T09:33:02.156Z,48.93
2019-02-20T09:35:28.168Z,49.04
2019-02-20T09:37:54.209Z,49.51
2019-02-20T09:40:20.231Z,49.45
2019-02-20T09:42:46.293Z,49.72
2019-02-20T09:45:12.285Z,49.67
2019-02-20T09:47:38.272Z,50.06
2019-02-20T09:50:04.266Z,49.60
2019-02-20T09:52:30.285Z,49.65
2019-02-20T09:54:56.378Z,49.08
2019-02-20T09:57:22.345Z,49.01
2019-02-20T09:59:48.421Z,49.01
2019-02-20T10:02:14.411Z,49.21
2019-02-20T10:04:40.403Z,49.29
2019-02-20T10:07:06.377Z,49.23
2019-02-20T10:09:32.462Z,49.38
2019-02-20T10:11:58.487Z,49.41
2019-02-20T10:14:24.481Z,49.11
2019-02-20T10:16:50.483Z,49.51
2019-02-20T10:19:16.464Z,49.35
2019-02-20T10:21:42.471Z,49.23
2019-02-20T10:24:08.479Z,49.46
2019-02-20T10:26:34.456Z,49.50
2019-02-20T10:29:00.477Z,49.63
2019-02-20T10:31:26.479Z,49.27
2019-02-20T10:33:52.479Z,49.07
2019-02-20T10:36:18.553Z,49.13
2019-02-20T10:38:44.570Z,49.05
2019-02-20T10:41:11.901Z,49.23
2019-02-20T10:43:37.963Z,49.09
2019-02-20T10:46:03.958Z,49.19
2019-02-20T10:48:30.011Z,49.54
2019-02-20T10:50:56.104Z,49.20
2019-02-20T10:53:22.107Z,49.09
2019-02-20T10:55:48.109Z,48.76
2019-02-20T10:58:14.099Z,49.31
2019-02-20T11:00:40.102Z,49.45
2019-02-20T11:03:06.896Z,49.51
2019-02-20T11:05:33.454Z,49.11
2019-02-20T11:07:59.549Z,49.02
2019-02-20T11:10:25.559Z,48.97
2019-02-20T11:12:51.561Z,48.73
2019-02-20T11:15:17.590Z,48.63
2019-02-20T11:17:43.591Z,48.53
2019-02-20T11:20:09.916Z,48.33
2019-02-20T11:22:36.085Z,48.31
2019-02-20T11:25:02.107Z,48.33
2019-02-20T11:27:28.124Z,48.30
2019-02-20T11:29:54.533Z,48.15
2019-02-20T11:32:20.531Z,48.25
2019-02-20T11:34:46.515Z,48.26
2019-02-20T11:37:12.534Z,48.19
2019-02-20T11:39:38.579Z,48.11
2019-02-20T11:42:04.666Z,48.17
2019-02-20T11:44:30.719Z,48.64
2019-02-20T11:46:56.770Z,48.64
2019-02-20T11:49:22.763Z,48.53
2019-02-20T11:51:48.952Z,48.71
2019-02-20T11:54:15.035Z,48.63
2019-02-20T11:56:41.020Z,48.50
2019-02-20T11:59:07.077Z,48.34
2019-02-20T12:01:33.059Z,48.35
2019-02-20T12:03:59.092Z,48.35
2019-02-20T12:06:25.089Z,48.52
2019-02-20T12:08:51.187Z,48.55
2019-02-20T12:11:17.235Z,48.39
2019-02-20T12:13:43.262Z,48.82
2019-02-20T12:16:09.246Z,48.61
2019-02-20T12:18:35.276Z,48.61
2019-02-20T12:21:01.303Z,48.58
2019-02-20T12:23:27.316Z,48.36
2019-02-20T12:25:54.376Z,48.55
2019-02-20T12:28:20.600Z,48.58
2019-02-20T12:30:46.623Z,48.39
2019-02-20T12:33:12.645Z,48.35
2019-02-20T12:35:39.269Z,48.32
2019-02-20T12:38:05.373Z,48.28
2019-02-20T12:40:31.487Z,48.08
2019-02-20T12:42:57.505Z,47.94
2019-02-20T12:45:23.528Z,47.95
2019-02-20T12:47:49.510Z,47.88
2019-02-20T12:50:15.573Z,47.85
2019-02-20T12:52:41.587Z,47.85
2019-02-20T12:55:07.621Z,47.88
2019-02-20T12:57:33.625Z,47.85
2019-02-20T12:59:59.683Z,47.80
2019-02-20T13:02:25.678Z,47.87
2019-02-20T13:04:51.667Z,47.84
2019-02-20T13:07:17.770Z,47.95
2019-02-20T13:09:43.815Z,48.00
2019-02-20T13:12:09.834Z,47.85
2019-02-20T13:14:35.894Z,47.90
2019-02-20T13:17:01.943Z,47.85
2019-02-20T13:19:28.034Z,47.72
2019-02-20T13:21:54.041Z,47.88
2019-02-20T13:24:20.129Z,47.80
2019-02-20T13:26:52.850Z,47.70
2019-02-20T13:29:14.363Z,47.69
2019-02-20T13:31:40.416Z,47.65
2019-02-20T13:34:06.491Z,47.67
2019-02-20T13:36:32.520Z,47.64
2019-02-20T13:38:58.730Z,47.72
2019-02-20T13:41:24.795Z,47.70
2019-02-20T13:43:50.835Z,47.75
2019-02-20T13:46:16.913Z,47.65
2019-02-20T13:48:42.914Z,47.73
2019-02-20T13:51:08.997Z,47.69
2019-02-20T13:53:35.019Z,47.76
2019-02-20T13:56:01.094Z,47.64
2019-02-20T13:58:27.484Z,47.51
2019-02-20T14:00:53.523Z,47.66
2019-02-20T14:03:19.604Z,47.51
2019-02-20T14:05:45.667Z,47.55
2019-02-20T14:08:11.823Z,47.57
2019-02-20T14:10:37.814Z,47.53
2019-02-20T14:13:03.807Z,47.94
2019-02-20T14:15:29.888Z,47.88
2019-02-20T14:17:56.043Z,47.95
2019-02-20T14:20:22.419Z,47.83
2019-02-20T14:22:48.508Z,47.84
2019-02-20T14:25:14.555Z,47.78
2019-02-20T14:27:40.640Z,47.59
2019-02-20T14:30:06.790Z,47.67
2019-02-20T14:32:32.791Z,47.76
2019-02-20T14:34:58.910Z,47.64
2019-02-20T14:37:25.071Z,47.68
2019-02-20T14:39:51.697Z,47.57
2019-02-20T14:42:17.949Z,47.71
2019-02-20T14:44:44.149Z,47.87
2019-02-20T14:47:10.265Z,47.90
2019-02-20T14:49:36.340Z,47.87
2019-02-20T14:52:02.421Z,47.72
2019-02-20T14:54:28.521Z,47.71
2019-02-20T14:56:54.660Z,47.82
2019-02-20T14:59:20.743Z,47.74
2019-02-20T15:01:47.022Z,47.91
2019-02-20T15:04:13.051Z,47.69
2019-02-20T15:06:39.159Z,47.60
2019-02-20T15:09:05.314Z,47.81
2019-02-20T15:11:31.379Z,47.80
2019-02-20T15:13:57.520Z,47.77
2019-02-20T15:16:23.536Z,47.78
2019-02-20T15:18:49.631Z,47.69
2019-02-20T15:21:15.649Z,47.67
2019-02-20T15:23:42.196Z,47.63
2019-02-20T15:26:08.281Z,47.60
2019-02-20T15:28:34.376Z,47.66
2019-02-20T15:31:02.171Z,47.64
2019-02-20T15:33:28.348Z,47.81
2019-02-20T15:35:54.482Z,48.00
2019-02-20T15:38:20.624Z,48.14
2019-02-20T15:40:46.655Z,48.11
2019-02-20T15:43:12.733Z,48.28
2019-02-20T15:45:38.830Z,48.25
2019-02-20T15:48:04.912Z,48.17
2019-02-20T15:50:30.987Z,48.26
2019-02-20T15:52:57.095Z,48.23
2019-02-20T15:55:24.162Z,48.01
2019-02-20T15:57:50.231Z,48.01
2019-02-20T16:00:16.370Z,48.04
2019-02-20T16:02:42.399Z,48.11
2019-02-20T16:05:08.899Z,48.01
2019-02-20T16:07:34.974Z,48.15
2019-02-20T16:10:01.044Z,48.26
2019-02-20T16:12:27.057Z,48.21
2019-02-20T16:14:53.210Z,48.25
2019-02-20T16:17:19.419Z,48.16
2019-02-20T16:19:45.569Z,48.11
2019-02-20T16:22:11.719Z,48.02
2019-02-20T16:24:37.725Z,47.99
2019-02-20T16:27:04.340Z,47.96
2019-02-20T16:29:30.416Z,48.00
2019-02-20T16:31:56.450Z,47.97
2019-02-20T16:34:22.494Z,47.95
2019-02-20T16:36:49.223Z,48.03
2019-02-20T16:39:15.367Z,47.90
2019-02-20T16:41:41.697Z,47.96
2019-02-20T16:44:10.151Z,48.12
2019-02-20T16:46:36.280Z,48.10
2019-02-20T16:49:02.676Z,48.07
2019-02-20T16:51:28.783Z,48.33
2019-02-20T16:53:54.887Z,48.38
2019-02-20T16:56:21.021Z,48.09
2019-02-20T16:58:47.179Z,47.97
2019-02-20T17:01:14.790Z,47.97
2019-02-20T17:03:40.933Z,47.85
2019-02-20T17:06:06.976Z,47.71
2019-02-20T17:08:35.525Z,47.87
2019-02-20T17:11:03.982Z,47.88
2019-02-20T17:13:30.069Z,47.67
2019-02-20T17:15:56.115Z,47.90
2019-02-20T17:18:22.164Z,47.67
2019-02-20T17:20:48.502Z,47.63
2019-02-20T17:23:14.580Z,47.63
2019-02-20T17:25:40.619Z,47.61
2019-02-20T17:28:06.993Z,47.79
2019-02-20T17:30:33.158Z,47.68
2019-02-20T17:32:59.204Z,47.76
2019-02-20T17:35:25.199Z,47.64
2019-02-20T17:37:51.285Z,47.50
2019-02-20T17:40:17.380Z,47.42
2019-02-20T17:42:43.445Z,47.44
2019-02-20T17:45:09.528Z,47.50
2019-02-20T17:47:35.533Z,47.49
2019-02-20T17:50:01.954Z,47.48
2019-02-20T17:52:28.074Z,47.46
2019-02-20T17:54:54.123Z,47.57
2019-02-20T17:57:20.106Z,47.54
2019-02-20T17:59:46.168Z,47.43
2019-02-20T18:02:12.168Z,47.49
2019-02-20T18:04:38.244Z,47.54
2019-02-20T18:07:04.325Z,47.44
2019-02-20T18:09:30.328Z,47.57
2019-02-20T18:11:56.317Z,47.59
2019-02-20T18:14:22.357Z,47.57
2019-02-20T18:16:50.144Z,47.55
2019-02-20T18:19:16.363Z,47.91
2019-02-20T18:21:42.327Z,47.71
2019-02-20T18:24:08.352Z,47.95
2019-02-20T18:26:34.431Z,47.89
2019-02-20T18:29:00.416Z,47.68
2019-02-20T18:31:26.445Z,47.93
2019-02-20T18:33:52.509Z,47.88
2019-02-20T18:36:18.610Z,47.90
2019-02-20T18:38:44.804Z,47.85
2019-02-20T18:41:10.849Z,47.79
2019-02-20T18:43:36.878Z,47.93
2019-02-20T18:46:02.903Z,47.95
2019-02-20T18:48:28.983Z,47.74
2019-02-20T18:50:56.057Z,47.63
2019-02-20T18:53:22.104Z,47.53
2019-02-20T18:55:48.183Z,47.54
2019-02-20T18:58:14.300Z,47.48
2019-02-20T19:00:40.349Z,47.51
2019-02-20T19:03:06.391Z,47.54
2019-02-20T19:05:33.686Z,47.55
2019-02-20T19:08:00.033Z,47.64
2019-02-20T19:10:26.132Z,47.60
2019-02-20T19:12:52.204Z,47.62
2019-02-20T19:15:18.215Z,47.65
2019-02-20T19:17:44.363Z,47.57
2019-02-20T19:20:10.372Z,47.58
2019-02-20T19:22:36.412Z,47.41
2019-02-20T19:25:02.418Z,47.48
2019-02-20T19:27:28.497Z,47.49
2019-02-20T19:29:56.013Z,47.60
2019-02-20T19:32:22.167Z,47.64
2019-02-20T19:34:48.141Z,47.62
2019-02-20T19:37:15.265Z,47.62
2019-02-20T19:39:43.575Z,47.62
2019-02-20T19:42:09.126Z,47.50
2019-02-20T19:44:35.162Z,47.51
2019-02-20T19:47:01.310Z,47.57
2019-02-20T19:49:27.451Z,47.62
2019-02-20T19:51:53.641Z,47.60
2019-02-20T19:54:19.727Z,47.57
2019-02-20T19:56:45.810Z,47.45
2019-02-20T19:59:11.837Z,47.49
2019-02-20T20:01:37.932Z,47.34
2019-02-20T20:04:03.969Z,47.40
2019-02-20T20:06:29.997Z,47.47
2019-02-20T20:08:56.082Z,47.46
2019-02-20T20:11:22.285Z,47.57
2019-02-20T20:13:48.306Z,47.44
2019-02-20T20:16:14.329Z,47.41
2019-02-20T20:18:40.376Z,47.46
2019-02-20T20:21:06.425Z,47.51
2019-02-20T20:23:32.465Z,47.51
2019-02-20T20:25:58.595Z,47.44
2019-02-20T20:28:24.793Z,47.42
2019-02-20T20:30:53.248Z,47.39
2019-02-20T20:35:48.554Z,47.30
2019-02-20T20:38:14.768Z,47.28
2019-02-20T20:40:40.879Z,47.30
2019-02-20T20:43:06.924Z,47.21
2019-02-20T20:45:32.951Z,47.18
2019-02-20T20:47:59.007Z,47.23
2019-02-20T20:50:25.017Z,47.19
2019-02-20T20:52:52.167Z,47.24
2019-02-20T20:55:18.226Z,47.20
2019-02-20T20:57:44.324Z,47.28
2019-02-20T21:00:10.315Z,47.46
2019-02-20T21:02:36.309Z,47.43
2019-02-20T21:05:02.406Z,47.55
2019-02-20T21:07:28.388Z,47.46
2019-02-20T21:09:54.456Z,47.45
2019-02-20T21:12:20.439Z,47.60
2019-02-20T21:14:46.441Z,47.63
2019-02-20T21:17:12.573Z,47.52
2019-02-20T21:19:38.613Z,47.55
2019-02-20T21:22:04.614Z,47.58
2019-02-20T21:24:30.772Z,47.66
2019-02-20T21:26:56.887Z,47.67
2019-02-20T21:29:28.408Z,47.65
2019-02-20T21:31:53.481Z,47.62
2019-02-20T21:34:18.417Z,47.71
2019-02-20T21:36:44.654Z,47.79
2019-02-20T21:39:10.848Z,47.75
2019-02-20T21:41:36.855Z,47.72
2019-02-20T21:44:03.276Z,47.68
2019-02-20T21:46:29.368Z,47.73
2019-02-20T21:48:55.430Z,47.77
2019-02-20T21:51:21.431Z,47.96
2019-02-20T21:53:47.460Z,47.82
2019-02-20T21:56:13.516Z,47.76
2019-02-20T21:58:39.564Z,47.86
2019-02-20T22:01:05.674Z,47.78
2019-02-20T22:03:31.763Z,47.71
2019-02-20T22:05:58.542Z,47.87
2019-02-20T22:08:24.697Z,47.81
2019-02-20T22:10:50.730Z,47.94
2019-02-20T22:13:16.722Z,47.90
2019-02-20T22:15:42.739Z,47.87
2019-02-20T22:18:08.734Z,47.82
2019-02-20T22:20:34.730Z,47.79
2019-02-20T22:23:00.754Z,48.12
2019-02-20T22:25:26.758Z,47.87
2019-02-20T22:27:52.807Z,47.73
2019-02-20T22:30:18.827Z,47.83
2019-02-20T22:32:44.837Z,47.84
2019-02-20T22:35:10.840Z,48.02
2019-02-20T22:37:36.827Z,47.72
2019-02-20T22:40:02.856Z,47.78
2019-02-20T22:42:28.846Z,47.73
2019-02-20T22:44:54.864Z,47.93
2019-02-20T22:47:20.860Z,47.89
2019-02-20T22:49:46.879Z,47.83
2019-02-20T22:52:12.900Z,48.04
2019-02-20T22:54:38.871Z,48.03
2019-02-20T22:57:04.897Z,48.10
2019-02-20T22:59:30.897Z,47.85
2019-02-20T23:01:56.982Z,47.83
2019-02-20T23:04:22.994Z,47.78
2019-02-20T23:06:48.999Z,47.76
2019-02-20T23:09:15.073Z,47.86
2019-02-20T23:11:41.108Z,47.82
2019-02-20T23:14:07.109Z,47.80
2019-02-20T23:16:33.098Z,47.87
2019-02-20T23:18:59.116Z,47.88
2019-02-20T23:21:25.130Z,47.77
2019-02-20T23:23:51.175Z,48.08
2019-02-20T23:26:17.164Z,47.97
2019-02-20T23:28:43.142Z,47.88
2019-02-20T23:31:09.165Z,47.97
2019-02-20T23:33:35.748Z,48.02
2019-02-20T23:36:01.808Z,48.13
2019-02-20T23:38:27.796Z,47.96
2019-02-20T23:40:53.771Z,48.01
2019-02-20T23:43:19.767Z,48.25
2019-02-20T23:45:45.762Z,48.30
2019-02-20T23:48:11.759Z,48.36
2019-02-20T23:50:37.736Z,48.37
2019-02-20T23:53:03.716Z,48.40
2019-02-20T23:55:29.736Z,48.38
2019-02-20T23:57:55.727Z,48.38
